Manitou, Minnesota
Current Conditions -  °F | °C
As of 4:53 AM on Thursday 27 Nov 2014 (Local Time) from KBDE Reporting Station
Clear Clear  
Wind Chill: -14°   Ceiling: Unl
Heat Index: -14°   Visibility: 10mi
Dew Point: -19°   Wind: 3mph
Humidity: 79%   Direction: 270°W
Pressure: 30.47"   Gusts: NA
Location:  48.6069°N, 94.172°W
Report Text: KBDE 271053Z AUTO 27003KT 10SM CLR M26/M28 A3047 RMK AO2 SLP358 T12561283 TSNO
Loading
Personal Weather Stations






























Interactive Weather Map New forecast layout! Learn more

10-Day Weather Forecast

Advertisements
Track Severe Weather on mobile